Time;durP1;ratioP1;P1;durP2;ratioP2;P2;SDS_P1;SDS_P2;PMS_P1;PMS_P2;Temp;Humidity;BMP_temperature;BMP_pressure;BME280_temperature;BME280_humidity;BME280_pressure;Samples;Min_cycle;Max_cycle;Signal;HPM_P1;HPM_P2
2023/01/01 00:00:25;;;;;;;4.77;4.47;;;;;;;4.17;100.00;96843.28;5115158;28;20834;-61
2023/01/01 00:02:53;;;;;;;8.63;7.53;;;;;;;4.26;100.00;96831.63;5115633;28;20434;-61
2023/01/01 00:05:22;;;;;;;6.93;4.10;;;;;;;4.22;100.00;96830.41;5115295;28;20462;-61
2023/01/01 00:07:50;;;;;;;9.87;8.10;;;;;;;4.30;98.87;96835.47;5116435;28;20477;-60
2023/01/01 00:10:30;;;;;;;7.30;5.20;;;;;;;4.07;100.00;96828.88;5116053;28;20515;-60
2023/01/01 00:13:00;;;;;;;7.03;4.93;;;;;;;3.78;99.85;96759.06;5115890;28;20443;-59
2023/01/01 00:15:29;;;;;;;4.30;4.10;;;;;;;4.17;99.08;96818.88;5115753;28;20486;-60
2023/01/01 00:17:57;;;;;;;17.90;5.97;;;;;;;4.32;98.50;96833.50;5115899;28;20432;-60
2023/01/01 00:20:26;;;;;;;5.13;4.17;;;;;;;4.40;99.13;96829.91;5115935;28;20451;-60
2023/01/01 00:23:02;;;;;;;3.40;3.07;;;;;;;4.44;98.34;96850.31;5115907;28;20438;-60
2023/01/01 00:25:31;;;;;;;7.80;4.23;;;;;;;4.43;98.83;96853.13;5115814;28;20427;-60
2023/01/01 00:28:01;;;;;;;7.20;6.60;;;;;;;4.18;100.00;96851.97;5115583;28;20459;-61
2023/01/01 00:30:30;;;;;;;1.97;1.90;;;;;;;3.98;100.00;96851.00;5115666;28;20936;-60
2023/01/01 00:32:58;;;;;;;2.63;2.37;;;;;;;3.97;100.00;96855.47;5115689;28;20473;-61
2023/01/01 00:35:26;;;;;;;17.17;5.00;;;;;;;4.17;100.00;96860.84;5115564;28;20502;-61
2023/01/01 00:37:55;;;;;;;1.80;1.00;;;;;;;4.09;100.00;96837.38;5115891;28;20641;-61
2023/01/01 00:40:24;;;;;;;2.60;2.50;;;;;;;4.29;100.00;96849.63;5115596;28;20420;-60
2023/01/01 00:42:52;;;;;;;8.13;2.73;;;;;;;4.33;100.00;96850.03;5115579;28;20444;-61
2023/01/01 00:45:22;;;;;;;2.70;2.60;;;;;;;4.34;98.51;96851.66;5115503;28;20416;-61
2023/01/01 00:47:51;;;;;;;3.43;3.33;;;;;;;4.29;98.10;96844.38;5115771;28;20459;-61
2023/01/01 00:50:20;;;;;;;12.20;3.47;;;;;;;4.25;99.43;96853.63;5115293;28;20468;-61
2023/01/01 00:52:49;;;;;;;3.33;3.13;;;;;;;3.75;100.00;96859.91;5115247;28;20477;-61
2023/01/01 00:55:18;;;;;;;2.60;2.50;;;;;;;4.05;100.00;96859.75;5114312;28;20478;-61
2023/01/01 00:57:46;;;;;;;1.43;1.33;;;;;;;4.21;100.00;96857.66;5115593;28;20778;-61
2023/01/01 01:00:16;;;;;;;1.97;1.87;;;;;;;4.25;100.00;96855.47;5114890;28;20432;-61
2023/01/01 01:02:45;;;;;;;2.30;1.20;;;;;;;4.27;99.96;96862.13;5114764;28;20412;-62
2023/01/01 01:05:14;;;;;;;9.47;2.73;;;;;;;3.98;100.00;96869.38;5115182;28;20523;-63
2023/01/01 01:07:42;;;;;;;2.27;2.07;;;;;;;3.46;100.00;96849.56;5115252;28;20420;-61
2023/01/01 01:10:11;;;;;;;2.27;2.07;;;;;;;3.88;100.00;96885.44;5113999;28;21007;-61
2023/01/01 01:12:40;;;;;;;3.63;1.40;;;;;;;4.01;100.00;96867.19;5115538;28;20515;-61
2023/01/01 01:15:09;;;;;;;1.90;1.80;;;;;;;3.41;100.00;96802.16;5114748;28;20532;-61
2023/01/01 01:17:38;;;;;;;3.40;2.73;;;;;;;3.86;100.00;96874.31;5114783;28;20459;-61
2023/01/01 01:20:09;;;;;;;2.27;2.00;;;;;;;3.82;100.00;96873.06;5114663;28;20424;-61
2023/01/01 01:22:37;;;;;;;4.20;2.63;;;;;;;3.40;100.00;96863.41;5114658;28;20499;-61
2023/01/01 01:25:07;;;;;;;3.13;2.97;;;;;;;3.67;100.00;96865.28;5114806;28;20442;-61
2023/01/01 01:27:35;;;;;;;3.53;3.33;;;;;;;3.75;100.00;96862.53;5114811;28;20866;-61
2023/01/01 01:30:05;;;;;;;12.80;5.77;;;;;;;3.70;100.00;96862.28;5114478;28;20885;-61
2023/01/01 01:32:33;;;;;;;5.43;4.70;;;;;;;3.82;100.00;96862.56;5113944;28;21077;-61
2023/01/01 01:35:01;;;;;;;4.00;2.40;;;;;;;3.74;100.00;96871.38;5114328;28;20476;-61
2023/01/01 01:37:31;;;;;;;7.00;3.93;;;;;;;3.43;100.00;96870.09;5114026;28;20516;-61
2023/01/01 01:39:59;;;;;;;4.43;4.27;;;;;;;3.27;100.00;96868.50;5113795;28;20424;-61
2023/01/01 01:42:28;;;;;;;7.70;7.40;;;;;;;3.14;100.00;96863.13;5113877;28;20432;-61
2023/01/01 01:44:58;;;;;;;9.10;6.27;;;;;;;2.71;100.00;96872.69;5113868;28;20467;-61
2023/01/01 01:47:31;;;;;;;7.03;5.40;;;;;;;2.48;100.00;96866.75;5114373;28;20818;-61
2023/01/01 01:50:06;;;;;;;5.30;3.37;;;;;;;2.58;100.00;96871.72;5113825;28;21072;-61
2023/01/01 01:52:39;;;;;;;4.77;3.80;;;;;;;2.38;100.00;96806.84;5114121;28;20449;-61
2023/01/01 01:55:10;;;;;;;3.23;2.90;;;;;;;2.86;100.00;96857.78;5114340;28;20857;-61
2023/01/01 01:57:40;;;;;;;11.20;6.20;;;;;;;2.94;100.00;96849.00;5113650;28;20514;-61
2023/01/01 02:00:09;;;;;;;2.83;2.63;;;;;;;2.45;100.00;96870.53;5113796;28;20524;-61
2023/01/01 02:02:45;;;;;;;2.57;2.47;;;;;;;2.61;100.00;96866.91;5113834;28;20981;-62
2023/01/01 02:05:14;;;;;;;2.27;2.20;;;;;;;2.87;100.00;96853.34;5113810;28;20418;-62
2023/01/01 02:07:45;;;;;;;9.23;4.70;;;;;;;2.77;100.00;96837.13;5114029;28;20869;-61
2023/01/01 02:10:13;;;;;;;2.07;1.97;;;;;;;3.07;100.00;96863.06;5113411;28;20427;-61
2023/01/01 02:12:41;;;;;;;5.77;5.20;;;;;;;3.10;100.00;96859.25;5113987;28;20427;-61
2023/01/01 02:15:10;;;;;;;2.07;1.97;;;;;;;2.30;100.00;96738.91;5113535;28;20471;-61
2023/01/01 02:17:47;;;;;;;2.63;2.50;;;;;;;3.01;100.00;96847.28;5113574;28;20428;-61
2023/01/01 02:20:29;;;;;;;4.30;3.47;;;;;;;3.16;100.00;96848.84;5113539;28;20459;-61
2023/01/01 02:23:24;;;;;;;2.50;2.40;;;;;;;3.07;100.00;96830.81;5113630;28;20440;-61
2023/01/01 02:26:18;;;;;;;1.90;1.90;;;;;;;3.23;100.00;96843.69;5113341;28;20435;-61
2023/01/01 02:28:57;;;;;;;3.20;3.10;;;;;;;3.25;99.78;96846.94;5113378;28;20428;-61
2023/01/01 02:31:30;;;;;;;5.67;2.40;;;;;;;2.87;100.00;96780.03;5113337;28;20466;-61
2023/01/01 02:34:02;;;;;;;2.60;2.50;;;;;;;2.68;100.00;96762.31;5113576;28;20428;-61
2023/01/01 02:36:33;;;;;;;5.60;1.30;;;;;;;3.16;100.00;96846.22;5113099;28;20508;-61
2023/01/01 02:39:05;;;;;;;7.70;4.17;;;;;;;3.30;99.70;96836.69;5113152;28;20456;-61
2023/01/01 02:41:36;;;;;;;16.90;5.70;;;;;;;2.51;100.00;96851.50;5113492;28;20451;-61
2023/01/01 02:44:06;;;;;;;1.43;1.33;;;;;;;2.83;100.00;96849.50;5113336;28;20439;-61
2023/01/01 02:46:36;;;;;;;3.30;3.20;;;;;;;3.13;100.00;96844.00;5113155;28;20957;-61
2023/01/01 02:49:04;;;;;;;5.10;3.37;;;;;;;3.26;100.00;96845.94;5112839;28;20480;-61
2023/01/01 02:51:54;;;;;;;7.80;5.03;;;;;;;2.55;100.00;96834.44;5113207;28;20420;-61
2023/01/01 02:54:32;;;;;;;2.97;2.10;;;;;;;2.82;100.00;96845.22;5113178;28;20847;-61
2023/01/01 02:57:06;;;;;;;2.30;2.20;;;;;;;3.08;100.00;96848.97;5112704;28;20503;-62
2023/01/01 03:02:41;;;;;;;2.23;1.10;;;;;;;3.47;100.00;96835.44;5112438;28;20428;-61
2023/01/01 03:05:25;;;;;;;1.53;1.50;;;;;;;3.49;100.00;96849.19;5112565;28;20431;-61
2023/01/01 03:08:04;;;;;;;0.90;0.90;;;;;;;3.53;100.00;96834.72;5112970;28;20419;-61
2023/01/01 03:10:41;;;;;;;2.20;2.03;;;;;;;3.42;100.00;96829.97;5112681;28;20423;-62
2023/01/01 03:13:17;;;;;;;1.07;1.07;;;;;;;3.00;100.00;96848.28;5114953;28;20762;-61
2023/01/01 03:15:55;;;;;;;3.27;3.03;;;;;;;3.11;100.00;96853.03;5112490;28;21009;-61
2023/01/01 03:18:28;;;;;;;7.50;1.40;;;;;;;2.87;100.00;96853.34;5112441;28;20518;-61
2023/01/01 03:20:59;;;;;;;0.97;0.97;;;;;;;2.44;100.00;96863.69;5112512;28;20507;-61
2023/01/01 03:23:34;;;;;;;3.47;2.20;;;;;;;2.42;100.00;96862.25;5112147;28;20951;-61
2023/01/01 03:26:09;;;;;;;5.93;4.50;;;;;;;1.98;100.00;96859.59;5112715;28;20504;-61
2023/01/01 03:28:43;;;;;;;13.23;8.27;;;;;;;1.70;100.00;96867.19;5111685;28;20449;-61
2023/01/01 03:31:18;;;;;;;3.43;3.20;;;;;;;1.70;100.00;96861.16;5112119;28;20423;-61
2023/01/01 03:33:52;;;;;;;2.77;2.67;;;;;;;1.96;100.00;96858.13;5111203;28;20431;-61
2023/01/01 03:36:27;;;;;;;2.30;2.20;;;;;;;2.12;99.94;96864.03;5112198;28;20855;-61
2023/01/01 03:39:00;;;;;;;8.77;4.40;;;;;;;2.20;95.32;96850.06;5111840;28;20455;-61
2023/01/01 03:41:35;;;;;;;3.70;2.50;;;;;;;2.12;95.88;96876.31;5112196;28;20485;-61
2023/01/01 03:44:08;;;;;;;1.40;1.40;;;;;;;1.84;97.39;96879.50;5112005;28;20431;-61
2023/01/01 03:46:38;;;;;;;5.90;5.30;;;;;;;2.12;95.96;96881.53;5111046;28;20515;-61
2023/01/01 03:49:10;;;;;;;2.33;2.17;;;;;;;2.08;95.30;96883.69;5111959;28;20428;-61
2023/01/01 03:51:58;;;;;;;4.97;4.77;;;;;;;1.98;95.12;96872.66;5111939;28;20432;-61
2023/01/01 03:54:37;;;;;;;5.23;3.20;;;;;;;2.10;96.69;96891.38;5111876;28;20424;-61
2023/01/01 03:57:10;;;;;;;1.83;1.83;;;;;;;2.14;97.53;96893.44;5111427;28;20463;-61
2023/01/01 03:59:44;;;;;;;2.53;2.33;;;;;;;2.13;98.08;96894.41;5111852;28;20428;-61
2023/01/01 04:02:19;;;;;;;5.73;4.77;;;;;;;2.00;99.47;96896.81;5112170;28;20419;-61
2023/01/01 04:04:48;;;;;;;4.30;3.40;;;;;;;1.99;100.00;96891.78;5111808;28;20428;-62
2023/01/01 04:07:17;;;;;;;2.23;2.13;;;;;;;1.93;100.00;96899.34;5112016;28;20434;-61
2023/01/01 04:09:50;;;;;;;10.30;2.30;;;;;;;1.84;100.00;96894.38;5111822;28;20520;-62
2023/01/01 04:12:19;;;;;;;3.33;3.13;;;;;;;1.63;100.00;96902.03;5111732;28;20959;-61
2023/01/01 04:14:48;;;;;;;2.80;2.70;;;;;;;1.82;100.00;96902.38;5111877;28;20428;-62
2023/01/01 04:17:17;;;;;;;6.07;3.73;;;;;;;1.78;100.00;96895.06;5111702;28;20475;-62
2023/01/01 04:19:46;;;;;;;2.33;2.23;;;;;;;1.97;100.00;96902.44;5111833;28;20943;-61
2023/01/01 04:22:22;;;;;;;4.80;4.50;;;;;;;1.89;99.39;96905.13;5111766;28;20443;-61
2023/01/01 04:24:50;;;;;;;2.10;2.00;;;;;;;1.83;100.00;96901.38;5111840;28;20896;-61
2023/01/01 04:27:19;;;;;;;6.37;2.00;;;;;;;1.78;100.00;96902.91;5111642;28;20464;-61
2023/01/01 04:29:47;;;;;;;3.43;3.33;;;;;;;1.59;100.00;96900.78;5111719;28;20420;-61
2023/01/01 04:32:17;;;;;;;1.63;1.63;;;;;;;1.34;100.00;96904.53;5111915;28;20807;-62
2023/01/01 04:34:45;;;;;;;6.47;3.47;;;;;;;1.49;100.00;96903.63;5111587;28;20749;-61
2023/01/01 04:37:13;;;;;;;5.47;4.50;;;;;;;1.33;100.00;96908.94;5111312;28;21167;-62
2023/01/01 04:39:42;;;;;;;8.63;1.53;;;;;;;1.62;100.00;96888.16;5111183;28;20920;-61
2023/01/01 04:42:10;;;;;;;1.60;1.53;;;;;;;1.55;100.00;96886.41;5111797;28;20420;-61
2023/01/01 04:44:38;;;;;;;4.30;1.80;;;;;;;1.84;100.00;96910.06;5111528;28;20431;-61
2023/01/01 04:47:07;;;;;;;6.90;1.23;;;;;;;1.88;100.00;96906.09;5113800;28;20464;-61
2023/01/01 04:49:37;;;;;;;1.90;1.80;;;;;;;2.02;99.07;96913.19;5115323;28;20596;-62
2023/01/01 04:52:05;;;;;;;6.03;3.43;;;;;;;1.70;98.25;96850.69;5115510;28;20485;-61
2023/01/01 04:54:33;;;;;;;2.00;1.90;;;;;;;2.10;97.49;96904.44;5115368;28;20459;-61
2023/01/01 04:57:02;;;;;;;4.13;2.50;;;;;;;2.10;97.36;96904.44;5115111;28;20463;-62
2023/01/01 04:59:30;;;;;;;1.33;1.30;;;;;;;2.10;97.23;96901.81;5114737;28;20885;-62
2023/01/01 05:01:59;;;;;;;3.00;2.50;;;;;;;2.10;96.38;96902.63;5114745;28;20439;-61
2023/01/01 05:04:27;;;;;;;3.73;3.57;;;;;;;2.04;96.79;96908.56;5114332;28;20432;-61
2023/01/01 05:06:57;;;;;;;4.40;4.07;;;;;;;1.76;100.00;96910.13;5114942;28;20432;-62
2023/01/01 05:09:25;;;;;;;1.47;1.40;;;;;;;2.00;100.00;96912.50;5115756;28;20958;-61
2023/01/01 05:11:55;;;;;;;6.63;2.83;;;;;;;2.10;99.18;96918.31;5116518;28;20480;-61
2023/01/01 05:14:23;;;;;;;1.90;1.57;;;;;;;2.22;98.21;96903.00;5115302;28;20432;-61
2023/01/01 05:16:53;;;;;;;2.57;2.40;;;;;;;2.37;97.27;96912.50;5115373;28;20554;-61
2023/01/01 05:19:21;;;;;;;2.57;2.47;;;;;;;2.15;99.39;96917.81;5114737;28;20435;-61
2023/01/01 05:21:50;;;;;;;3.17;3.07;;;;;;;2.07;99.88;96913.47;5114828;28;20412;-61
2023/01/01 05:24:19;;;;;;;3.47;1.83;;;;;;;1.95;99.76;96909.63;5114943;28;20460;-61
2023/01/01 05:26:48;;;;;;;5.43;4.43;;;;;;;2.11;97.71;96925.19;5114815;28;20416;-61
2023/01/01 05:29:16;;;;;;;1.90;1.80;;;;;;;1.74;96.57;96860.63;5114362;28;20488;-61
2023/01/01 05:31:45;;;;;;;2.90;2.70;;;;;;;2.11;98.64;96919.13;5114945;28;20433;-61
2023/01/01 05:34:14;;;;;;;1.60;1.60;;;;;;;1.90;97.47;96885.81;5114615;28;20431;-61
2023/01/01 05:36:42;;;;;;;5.70;4.33;;;;;;;1.85;100.00;96906.44;5113542;28;20437;-61
2023/01/01 05:39:12;;;;;;;4.13;3.83;;;;;;;1.84;100.00;96912.66;5114495;28;20443;-61
2023/01/01 05:41:42;;;;;;;7.63;5.80;;;;;;;1.97;100.00;96905.03;5114712;28;20881;-61
2023/01/01 05:44:10;;;;;;;3.10;3.00;;;;;;;2.20;99.93;96899.78;5114806;28;20766;-61
2023/01/01 05:46:39;;;;;;;4.73;4.20;;;;;;;2.62;97.96;96894.72;5114422;28;20908;-61
2023/01/01 05:49:10;;;;;;;6.50;4.60;;;;;;;2.86;93.71;96906.75;5114280;28;20936;-61
2023/01/01 05:51:38;;;;;;;16.20;4.03;;;;;;;2.69;90.91;96892.19;5114574;28;20463;-61
2023/01/01 05:54:06;;;;;;;3.50;3.23;;;;;;;1.57;98.54;96919.22;5114490;28;20447;-61
2023/01/01 05:56:34;;;;;;;53.83;10.07;;;;;;;0.47;100.00;96902.97;5114019;28;20493;-60
2023/01/01 05:59:04;;;;;;;1.60;1.33;;;;;;;0.15;100.00;96916.09;5113250;28;20466;-61
2023/01/01 06:01:33;;;;;;;4.30;4.10;;;;;;;0.18;100.00;96936.63;5114158;28;20464;-61
2023/01/01 06:04:10;;;;;;;2.90;2.67;;;;;;;0.20;100.00;96932.06;5114417;28;20504;-60
2023/01/01 06:06:38;;;;;;;2.07;1.83;;;;;;;0.33;100.00;96927.16;5114354;28;20459;-61
2023/01/01 06:09:07;;;;;;;1.37;1.27;;;;;;;0.77;100.00;96938.75;5114051;28;20485;-62
2023/01/01 06:11:35;;;;;;;2.30;1.43;;;;;;;1.19;100.00;96935.78;5113472;28;20507;-60
2023/01/01 06:14:05;;;;;;;1.77;1.67;;;;;;;1.48;100.00;96933.34;5114024;28;20425;-60
2023/01/01 06:16:33;;;;;;;2.43;2.33;;;;;;;2.13;100.00;96928.41;5113670;28;20518;-60
2023/01/01 06:19:03;;;;;;;0.93;0.93;;;;;;;2.58;96.57;96928.28;5113660;28;20562;-60
2023/01/01 06:21:32;;;;;;;1.40;1.40;;;;;;;2.95;94.47;96926.59;5113923;28;20489;-61
2023/01/01 06:24:00;;;;;;;1.07;1.07;;;;;;;2.89;93.02;96929.91;5113945;28;20428;-60
2023/01/01 06:26:31;;;;;;;2.13;2.00;;;;;;;2.68;92.91;96932.47;5113914;28;20810;-61
2023/01/01 06:29:00;;;;;;;1.63;1.63;;;;;;;2.63;92.91;96937.44;5113491;28;20427;-61
2023/01/01 06:31:30;;;;;;;1.07;1.07;;;;;;;2.24;93.65;96938.47;5113844;28;20420;-61
2023/01/01 06:34:07;;;;;;;1.27;1.17;;;;;;;2.35;94.19;96937.22;5113739;28;20870;-60
2023/01/01 06:36:38;;;;;;;3.17;1.80;;;;;;;2.22;94.38;96947.47;5113406;28;20425;-61
2023/01/01 06:39:07;;;;;;;3.83;3.53;;;;;;;2.65;92.60;96951.97;5113290;28;20558;-62
2023/01/01 06:41:35;;;;;;;5.63;2.10;;;;;;;2.76;90.13;96896.53;5113354;28;20424;-62
2023/01/01 06:44:04;;;;;;;2.17;2.10;;;;;;;3.33;86.72;96946.41;5112735;28;20432;-61
2023/01/01 06:46:35;;;;;;;5.83;5.40;;;;;;;3.09;86.86;96936.22;5112504;28;20483;-62
2023/01/01 06:49:05;;;;;;;2.00;1.90;;;;;;;3.74;86.59;96954.50;5112510;28;20440;-51
2023/01/01 06:51:37;;;;;;;1.70;1.60;;;;;;;3.87;84.14;96932.84;5112645;28;20424;-52
2023/01/01 06:54:07;;;;;;;2.47;2.37;;;;;;;4.55;83.43;96947.94;5112724;28;20506;-52
2023/01/01 06:56:36;;;;;;;2.53;2.10;;;;;;;4.53;84.15;96850.97;5112889;28;20448;-52
2023/01/01 06:59:05;;;;;;;3.97;1.90;;;;;;;4.98;76.81;96937.06;5113170;28;20481;-51
2023/01/01 07:01:38;;;;;;;3.07;2.87;;;;;;;5.32;78.31;96959.06;5112833;28;20457;-51
2023/01/01 07:04:14;;;;;;;7.90;4.10;;;;;;;5.88;75.32;96960.50;5112295;28;20511;-52
2023/01/01 07:06:43;;;;;;;3.73;3.63;;;;;;;5.62;76.70;96924.38;5112850;28;20428;-52
2023/01/01 07:09:11;;;;;;;5.70;4.73;;;;;;;6.04;79.82;96956.69;5111619;28;20924;-53
2023/01/01 07:11:42;;;;;;;4.77;2.73;;;;;;;6.13;77.06;96953.66;5112264;28;20519;-52
2023/01/01 07:14:10;;;;;;;5.23;4.93;;;;;;;6.64;73.50;96958.31;5112983;28;20511;-52
2023/01/01 07:16:40;;;;;;;3.70;3.40;;;;;;;6.89;72.44;96954.00;5112631;28;20424;-51
2023/01/01 07:19:08;;;;;;;7.60;3.83;;;;;;;6.76;72.06;96948.75;5112582;28;20463;-52
2023/01/01 07:21:43;;;;;;;4.43;4.30;;;;;;;6.78;70.39;96936.22;5112796;28;20903;-51
2023/01/01 07:24:13;;;;;;;5.20;3.73;;;;;;;6.53;70.48;96956.31;5112625;28;20932;-52
2023/01/01 07:26:41;;;;;;;8.60;7.90;;;;;;;6.62;71.21;96944.53;5111342;28;20923;-52
2023/01/01 07:29:11;;;;;;;4.37;4.17;;;;;;;7.01;69.57;96939.97;5111698;28;20476;-52
2023/01/01 07:31:43;;;;;;;5.20;4.80;;;;;;;7.48;67.01;96940.63;5112484;28;20430;-52
2023/01/01 07:34:15;;;;;;;5.87;5.40;;;;;;;7.99;65.41;96959.88;5112234;28;20464;-52
2023/01/01 07:36:43;;;;;;;10.33;3.83;;;;;;;8.07;66.02;96956.94;5112616;28;20425;-52
2023/01/01 07:39:13;;;;;;;14.50;8.00;;;;;;;7.82;67.25;96969.28;5112206;28;20505;-51
2023/01/01 07:41:41;;;;;;;4.90;4.60;;;;;;;8.36;64.20;96962.66;5112376;28;20458;-52
2023/01/01 07:44:10;;;;;;;8.10;4.03;;;;;;;8.69;62.34;96963.22;5112301;28;20482;-52
2023/01/01 07:46:38;;;;;;;8.03;6.23;;;;;;;8.68;61.97;96961.59;5111626;28;20416;-52
2023/01/01 07:49:08;;;;;;;6.23;3.50;;;;;;;8.91;60.56;96957.31;5111172;28;20428;-53
2023/01/01 07:51:36;;;;;;;4.00;1.90;;;;;;;8.89;60.91;96956.72;5110404;28;20431;-52
2023/01/01 07:54:05;;;;;;;4.07;2.50;;;;;;;8.97;61.03;96958.28;5109461;28;20484;-53
2023/01/01 07:56:35;;;;;;;24.03;2.90;;;;;;;8.95;61.10;96955.03;5111391;28;20905;-53
2023/01/01 07:59:04;;;;;;;37.17;5.10;;;;;;;9.17;60.72;96950.13;5109908;28;20503;-54
2023/01/01 08:01:35;;;;;;;8.63;4.60;;;;;;;10.07;57.68;96951.81;5109574;28;20478;-54
2023/01/01 08:04:05;;;;;;;11.53;9.30;;;;;;;9.59;58.43;96877.75;5109822;28;20439;-54
2023/01/01 08:06:34;;;;;;;8.67;8.07;;;;;;;10.02;58.18;96954.34;5110082;28;20888;-54
2023/01/01 08:09:03;;;;;;;8.10;5.30;;;;;;;10.55;57.89;96947.22;5110776;28;20496;-55
2023/01/01 08:11:31;;;;;;;3.47;3.17;;;;;;;10.88;56.70;96944.00;5111294;28;20445;-55
2023/01/01 08:14:00;;;;;;;11.43;4.03;;;;;;;11.03;55.97;96949.66;5111473;28;20801;-55
2023/01/01 08:16:28;;;;;;;7.47;6.80;;;;;;;10.98;55.23;96943.47;5111848;28;20931;-56
2023/01/01 08:18:57;;;;;;;11.03;5.73;;;;;;;10.95;54.96;96944.72;5111680;28;20556;-56
2023/01/01 08:21:25;;;;;;;2.63;2.53;;;;;;;10.73;54.96;96941.03;5114693;28;20504;-56
2023/01/01 08:23:55;;;;;;;3.57;3.27;;;;;;;10.36;56.33;96942.25;5115814;28;20424;-55
2023/01/01 08:26:29;;;;;;;3.00;2.80;;;;;;;10.95;55.52;96931.47;5115842;28;20433;-56
2023/01/01 08:28:57;;;;;;;2.87;2.77;;;;;;;11.24;54.01;96917.22;5115803;28;20420;-56
2023/01/01 08:31:26;;;;;;;6.00;4.73;;;;;;;11.02;54.75;96940.09;5116280;28;20531;-56
2023/01/01 08:33:54;;;;;;;11.63;4.77;;;;;;;10.70;55.14;96950.25;5116005;28;20418;-56
2023/01/01 08:36:23;;;;;;;3.90;3.70;;;;;;;10.78;54.76;96951.75;5116014;28;20426;-55
2023/01/01 08:38:51;;;;;;;6.00;2.37;;;;;;;10.13;57.03;96943.81;5115612;28;20478;-55
2023/01/01 08:41:21;;;;;;;2.07;1.97;;;;;;;10.08;56.06;96959.56;5116069;28;20858;-55
2023/01/01 08:43:49;;;;;;;2.17;1.97;;;;;;;9.91;57.22;96955.13;5115979;28;20938;-56
2023/01/01 08:46:17;;;;;;;2.37;2.27;;;;;;;10.08;58.08;96951.63;5115935;28;20510;-56
2023/01/01 08:48:46;;;;;;;3.70;3.40;;;;;;;10.06;58.73;96944.94;5115439;28;20437;-56
2023/01/01 08:51:14;;;;;;;4.27;3.87;;;;;;;10.61;57.89;96940.22;5115229;28;20521;-55
2023/01/01 08:53:42;;;;;;;6.63;4.90;;;;;;;11.13;57.54;96938.47;5115616;28;20842;-55
2023/01/01 08:56:18;;;;;;;9.43;3.03;;;;;;;11.04;59.16;96938.03;5115499;28;20433;-55
2023/01/01 08:58:48;;;;;;;3.30;3.00;;;;;;;11.70;56.92;96931.44;5115245;28;20469;-55
2023/01/01 09:01:20;;;;;;;3.23;3.07;;;;;;;12.15;55.12;96929.63;5115396;28;20529;-54
2023/01/01 09:03:49;;;;;;;14.43;5.33;;;;;;;12.14;55.92;96913.91;5115274;28;20903;-55
2023/01/01 09:06:17;;;;;;;5.07;4.73;;;;;;;12.50;53.86;96913.44;5115524;28;20482;-55
2023/01/01 09:08:46;;;;;;;1.57;1.43;;;;;;;13.17;52.05;96899.03;5115191;28;20452;-55
2023/01/01 09:11:23;;;;;;;3.90;3.53;;;;;;;13.31;51.88;96897.59;5115474;28;20470;-57
2023/01/01 09:13:53;;;;;;;3.67;3.43;;;;;;;13.58;51.99;96900.34;5115050;28;20459;-56
2023/01/01 09:16:22;;;;;;;3.23;2.90;;;;;;;13.40;52.27;96907.81;5115077;28;20434;-55
2023/01/01 09:18:51;;;;;;;8.53;6.03;;;;;;;13.64;51.61;96883.34;5115127;28;20454;-55
2023/01/01 09:21:19;;;;;;;13.13;7.03;;;;;;;14.00;50.12;96887.16;5115238;28;20415;-55
2023/01/01 09:23:48;;;;;;;6.50;5.97;;;;;;;14.66;48.92;96872.53;5114492;28;20502;-55
2023/01/01 09:26:16;;;;;;;17.20;4.90;;;;;;;15.17;47.75;96877.13;5114658;28;20446;-54
2023/01/01 09:28:44;;;;;;;5.50;3.57;;;;;;;14.94;47.71;96874.06;5114707;28;20459;-54
2023/01/01 09:31:14;;;;;;;3.07;2.87;;;;;;;15.20;47.75;96865.13;5114912;28;20499;-54
2023/01/01 09:33:42;;;;;;;4.43;4.03;;;;;;;15.47;47.39;96871.13;5113989;28;20424;-54
2023/01/01 09:36:15;;;;;;;4.40;2.80;;;;;;;15.63;46.74;96872.00;5114874;28;20443;-54
2023/01/01 09:38:48;;;;;;;4.53;4.13;;;;;;;15.07;47.65;96869.06;5114866;28;20434;-53
2023/01/01 09:41:25;;;;;;;3.80;2.63;;;;;;;15.62;47.04;96867.69;5114825;28;20485;-53
2023/01/01 09:44:01;;;;;;;12.10;3.03;;;;;;;14.91;47.63;96856.69;5114268;28;20936;-53
2023/01/01 09:46:32;;;;;;;5.20;3.57;;;;;;;15.51;47.35;96866.84;5114380;28;20480;-53
2023/01/01 09:49:05;;;;;;;9.03;3.53;;;;;;;15.83;47.05;96829.25;5114250;28;20897;-53
2023/01/01 09:51:36;;;;;;;3.80;3.50;;;;;;;16.14;45.64;96848.81;5114109;28;20439;-52
2023/01/01 09:54:26;;;;;;;5.37;2.73;;;;;;;16.82;45.12;96844.78;5114217;28;20904;-52
2023/01/01 09:56:57;;;;;;;3.20;3.00;;;;;;;16.07;46.09;96846.41;5114138;28;20927;-52
2023/01/01 09:59:26;;;;;;;3.73;3.53;;;;;;;16.37;46.47;96837.56;5114283;28;20463;-52
2023/01/01 10:02:00;;;;;;;3.40;2.60;;;;;;;16.80;45.60;96825.50;5114005;28;20424;-52
2023/01/01 10:04:41;;;;;;;1.30;1.20;;;;;;;17.89;43.71;96827.97;5114498;28;20919;-52
2023/01/01 10:07:16;;;;;;;5.10;1.90;;;;;;;17.46;43.56;96816.13;5113857;28;20462;-52
2023/01/01 10:09:57;;;;;;;6.53;2.10;;;;;;;18.56;41.61;96807.63;5114283;28;20507;-52
2023/01/01 10:12:36;;;;;;;7.70;1.77;;;;;;;18.90;40.56;96801.06;5113623;28;20426;-52
2023/01/01 10:15:14;;;;;;;11.70;4.53;;;;;;;18.67;41.24;96801.06;5114104;28;20462;-52
2023/01/01 10:17:46;;;;;;;2.47;2.10;;;;;;;18.24;41.53;96781.31;5114163;28;20416;-52
2023/01/01 10:20:22;;;;;;;1.60;1.50;;;;;;;19.31;40.33;96789.84;5114166;28;20471;-52
2023/01/01 10:22:55;;;;;;;2.20;2.10;;;;;;;18.28;40.77;96788.50;5113980;28;20984;-52
2023/01/01 10:25:27;;;;;;;2.57;2.47;;;;;;;16.92;42.26;96732.25;5114021;28;20478;-52
2023/01/01 10:27:59;;;;;;;4.40;2.90;;;;;;;17.30;42.27;96793.19;5113604;28;20420;-52
2023/01/01 10:30:29;;;;;;;4.33;2.47;;;;;;;17.57;41.72;96737.28;5113500;28;20471;-52
2023/01/01 10:33:00;;;;;;;2.53;2.33;;;;;;;17.26;43.36;96743.06;5113317;28;20424;-51
2023/01/01 10:35:35;;;;;;;5.17;1.80;;;;;;;18.36;41.27;96779.84;5113449;28;20967;-51
2023/01/01 10:38:05;;;;;;;1.83;1.73;;;;;;;18.88;40.47;96780.94;5113417;28;20511;-52
2023/01/01 10:40:33;;;;;;;2.10;2.00;;;;;;;19.02;40.24;96777.28;5113302;28;21042;-51
2023/01/01 10:43:03;;;;;;;2.67;2.47;;;;;;;19.53;40.22;96742.50;5113185;28;20523;-51
2023/01/01 10:45:34;;;;;;;7.53;1.83;;;;;;;19.43;40.17;96763.38;5113027;28;20442;-52
2023/01/01 10:48:21;;;;;;;2.00;1.10;;;;;;;20.56;39.81;96756.72;5113226;28;20488;-52
2023/01/01 10:50:52;;;;;;;1.63;1.30;;;;;;;21.01;37.77;96755.06;5112257;28;20475;-52
2023/01/01 10:53:32;;;;;;;3.43;1.67;;;;;;;21.20;37.27;96745.00;5112446;28;20459;-52
2023/01/01 10:56:04;;;;;;;1.37;1.23;;;;;;;21.85;36.15;96735.47;5113008;28;20439;-52
2023/01/01 10:58:39;;;;;;;1.30;1.30;;;;;;;22.13;35.57;96723.44;5112956;28;20424;-52
2023/01/01 11:01:10;;;;;;;1.67;1.57;;;;;;;20.89;36.92;96734.00;5113106;28;20459;-52
2023/01/01 11:03:53;;;;;;;1.73;1.63;;;;;;;21.50;36.75;96730.84;5113130;28;20825;-52
2023/01/01 11:06:24;;;;;;;1.57;1.47;;;;;;;20.80;38.61;96733.09;5113108;28;20573;-53
2023/01/01 11:08:55;;;;;;;2.83;2.73;;;;;;;20.66;38.03;96729.59;5112664;28;20420;-52
2023/01/01 11:11:28;;;;;;;1.50;1.40;;;;;;;20.18;37.34;96721.84;5112795;28;20512;-52
2023/01/01 11:13:59;;;;;;;8.07;5.07;;;;;;;20.26;38.65;96710.38;5112553;28;20420;-52
2023/01/01 11:16:28;;;;;;;1.70;1.60;;;;;;;20.78;37.20;96719.13;5112580;28;20428;-52
2023/01/01 11:19:06;;;;;;;1.10;0.97;;;;;;;20.32;37.22;96719.19;5112619;28;20420;-52
2023/01/01 11:21:36;;;;;;;3.10;2.90;;;;;;;20.49;37.99;96719.41;5112862;28;20467;-52
2023/01/01 11:24:17;;;;;;;2.20;1.80;;;;;;;21.07;38.65;96716.94;5112263;28;20946;-54
2023/01/01 11:26:45;;;;;;;2.70;2.50;;;;;;;21.34;37.49;96713.41;5112808;28;20412;-52
2023/01/01 11:29:28;;;;;;;4.03;3.27;;;;;;;21.14;37.40;96673.38;5112638;28;20536;-53
2023/01/01 11:31:59;;;;;;;2.60;2.50;;;;;;;21.50;36.89;96707.34;5112425;28;20428;-52
2023/01/01 11:34:37;;;;;;;1.80;1.70;;;;;;;19.84;37.83;96545.59;5112344;28;20515;-53
2023/01/01 11:37:23;;;;;;;2.50;2.23;;;;;;;20.62;37.32;96663.94;5112230;28;20428;-53
2023/01/01 11:39:53;;;;;;;2.60;2.40;;;;;;;20.36;37.49;96697.84;5112248;28;20492;-53
2023/01/01 11:42:25;;;;;;;4.00;1.60;;;;;;;21.04;37.07;96693.25;5112151;28;20424;-53
2023/01/01 11:44:55;;;;;;;1.57;1.47;;;;;;;23.11;35.09;96688.06;5112092;28;20432;-53
2023/01/01 11:47:29;;;;;;;1.47;0.77;;;;;;;22.62;34.19;96675.69;5112112;28;20424;-52
2023/01/01 11:50:02;;;;;;;1.57;0.60;;;;;;;22.44;35.95;96677.47;5111809;28;20468;-53
2023/01/01 11:52:37;;;;;;;0.60;0.50;;;;;;;22.28;33.73;96665.50;5112471;28;20420;-52
2023/01/01 11:55:18;;;;;;;0.40;0.40;;;;;;;23.69;34.82;96664.09;5111544;28;20510;-51
2023/01/01 11:57:58;;;;;;;0.57;0.50;;;;;;;24.29;32.89;96660.47;5111697;28;20959;-52